Weather reports worldwide

Advertisment
La Molina, Spain (8117): temperature & dewpoint: 11.08.2018 01:00:00 - 17.08.2018 01:00:00 (CEST)La Molina, Spain (8117): wind speed & gusts: 11.08.2018 01:00:00 - 17.08.2018 01:00:00 (CEST)La Molina, Spain (8117): wind direction: 11.08.2018 01:00:00 - 17.08.2018 01:00:00 (CEST)La Molina, Spain (8117): visibility: 11.08.2018 01:00:00 - 17.08.2018 01:00:00 (CEST)La Molina, Spain (8117): sunshine duration: 11.08.2018 01:00:00 - 17.08.2018 01:00:00 (CEST)La Molina, Spain (8117): precipitation: 11.08.2018 01:00:00 - 17.08.2018 01:00:00 (CEST)
Date & Time tt [°C] td [°C] ff [km/h] ff [kn] fx [km/h] fx [kn] dd vv [km] sd [min] rr [mm]
17.08.2018 01:00:00 12,3 11,4 0 0 - - N 20 0 0,0
17.08.2018 00:00:00 12,0 10,6 0 0 - - N 20 0 0,0
16.08.2018 23:00:00 11,9 10,5 0 0 - - N 20 0 0,0
16.08.2018 22:00:00 13,9 8,1 0 0 - - N 11 0 2,2
16.08.2018 21:00:00 13,6 12,3 0 0 - - N 12 0 0,8
16.08.2018 20:00:00 - - - - - - - - - -
16.08.2018 19:00:00 13,9 12,4 1 1 - - N 3,5 0 3,4
16.08.2018 18:00:00 16,6 11,7 0 0 - - N 19 6 0,0
16.08.2018 17:00:00 18,8 13,2 0 0 - - N 20 30 0,0
16.08.2018 16:00:00 21,0 12,9 0 0 - - N 20 44 0,0
16.08.2018 15:00:00 21,4 12,3 0 0 - - N 20 59 0,0
16.08.2018 14:00:00 20,7 11,6 0 0 13 7 N 20 53 -
16.08.2018 13:00:00 18,6 12,8 6 3 13 7 N 20 55 0,0
16.08.2018 12:00:00 17,4 13,4 5 3 11 6 N 20 60 0,0
16.08.2018 11:00:00 15,9 11,9 5 3 8 4 NW 20 53 0,0
16.08.2018 10:00:00 14,6 11,9 5 3 8 4 NNW 17 53 0,0
16.08.2018 09:00:00 13,5 11,2 0 0 - - N 20 24 0,0
16.08.2018 08:00:00 11,1 10,3 0 0 - - N 18 0 -
16.08.2018 07:00:00 11,1 10,5 0 0 - - N 20 0 0,0
16.08.2018 06:00:00 10,6 9,7 0 0 - - N 20 0 0,0
16.08.2018 05:00:00 11,1 9,9 0 0 - - N 20 0 0,0
16.08.2018 04:00:00 11,2 10,3 0 0 - - N 20 0 0,0
16.08.2018 03:00:00 11,5 10,4 0 0 - - N 20 0 0,0
16.08.2018 02:00:00 11,8 10,4 0 0 - - N 20 0 -
16.08.2018 01:00:00 12,2 10,6 0 0 - - N 20 0 0,0
16.08.2018 00:00:00 12,5 10,7 0 0 - - N 20 0 0,0
15.08.2018 23:00:00 12,9 11,0 0 0 - - N 20 0 0,0
15.08.2018 22:00:00 14,5 11,1 2 1 - - E 20 0 0,0
15.08.2018 21:00:00 16,0 11,4 0 0 - - N 20 3 0,0
15.08.2018 20:00:00 18,3 11,6 0 0 - - N 20 46 -
15.08.2018 19:00:00 18,5 11,8 0 0 - - N 20 43 0,0
15.08.2018 18:00:00 20,6 13,3 0 0 - - N 20 60 0,0
15.08.2018 17:00:00 21,3 12,2 0 0 - - N 20 60 0,0
15.08.2018 16:00:00 21,2 12,9 0 0 - - N 20 60 0,0
15.08.2018 15:00:00 21,0 11,6 0 0 - - N 20 60 0,0
15.08.2018 14:00:00 21,0 5,3 6 3 17 9 NNW 20 60 -
15.08.2018 13:00:00 20,2 3,8 1 1 - - WNW 20 60 0,0
15.08.2018 12:00:00 19,1 0,2 1 0 13 7 NNE 20 60 0,0
15.08.2018 11:00:00 16,9 1,7 8 4 13 7 NW 20 60 0,0
15.08.2018 10:00:00 15,5 5,7 3 2 - - S 20 60 0,0
15.08.2018 09:00:00 10,4 4,8 0 0 - - N 20 30 0,0
15.08.2018 08:00:00 7,6 3,3 0 0 - - N 20 0 -
15.08.2018 07:00:00 7,8 3,6 0 0 - - N 20 0 0,0
15.08.2018 06:00:00 7,0 4,1 0 0 - - N 20 0 0,0
15.08.2018 05:00:00 7,1 4,8 0 0 - - N 20 0 0,0
15.08.2018 04:00:00 8,0 5,1 0 0 - - N 20 0 0,0
15.08.2018 03:00:00 8,2 4,6 0 0 - - N 20 0 0,0
15.08.2018 02:00:00 9,1 4,5 0 0 - - N 20 0 -
15.08.2018 01:00:00 9,2 5,6 0 0 - - N 20 0 0,0
15.08.2018 00:00:00 10,0 6,0 0 0 - - N 20 0 0,0
14.08.2018 23:00:00 10,7 6,7 0 0 - - N 20 0 0,0
14.08.2018 22:00:00 12,1 8,0 0 0 - - N 20 0 0,0
14.08.2018 21:00:00 14,5 9,6 3 2 - - S 20 0 0,0
14.08.2018 20:00:00 16,6 11,6 4 2 10 5 N 20 17 -
14.08.2018 19:00:00 19,5 9,4 0 0 - - N 20 58 0,0
14.08.2018 18:00:00 18,9 12,6 0 0 - - N 20 44 0,0
14.08.2018 17:00:00 20,0 12,5 0 0 - - N 20 60 0,0
14.08.2018 16:00:00 20,5 10,9 0 0 16 9 N 20 60 0,0
14.08.2018 15:00:00 20,4 11,1 6 4 16 9 NW 20 54 0,0
14.08.2018 14:00:00 18,7 11,6 1 0 14 8 WNW 20 45 -
14.08.2018 13:00:00 18,6 12,5 6 3 16 9 NW 20 58 0,0
14.08.2018 12:00:00 17,0 11,9 8 5 15 8 NNW 20 60 0,0
14.08.2018 11:00:00 15,2 11,6 3 2 10 6 N 20 60 0,0
14.08.2018 10:00:00 14,8 11,6 2 1 - - N 20 44 0,0
14.08.2018 09:00:00 14,1 12,0 - - - - - 18 29 0,0
14.08.2018 08:00:00 11,5 10,4 0 0 - - N 20 0 -
14.08.2018 07:00:00 11,4 9,8 0 0 - - N 20 0 0,0
14.08.2018 06:00:00 12,1 10,8 0 0 - - N 20 0 0,0
14.08.2018 05:00:00 12,2 10,6 2 1 - - NW 20 0 0,0
14.08.2018 04:00:00 13,1 11,2 0 0 - - N 20 0 0,0
14.08.2018 03:00:00 11,6 10,7 0 0 - - N 20 0 0,0
14.08.2018 02:00:00 12,3 11,2 0 0 - - N 20 0 -
14.08.2018 01:00:00 12,9 11,8 0 0 - - N 20 0 0,0
14.08.2018 00:00:00 13,4 12,1 0 0 - - N 20 0 0,0
13.08.2018 23:00:00 14,0 12,7 1 0 - - WNW 17 0 0,2
13.08.2018 22:00:00 14,2 12,5 1 1 - - NW 19 0 0,0
13.08.2018 21:00:00 15,4 13,5 5 3 - - NW 7 0 0,2
13.08.2018 20:00:00 17,9 11,9 6 4 - - NNW 19 9 -
13.08.2018 19:00:00 19,7 13,0 0 0 - - N 20 30 0,0
13.08.2018 18:00:00 21,0 12,7 0 0 - - N 20 59 0,0
13.08.2018 17:00:00 21,5 11,8 0 0 - - N 20 56 0,0
13.08.2018 16:00:00 21,7 12,8 0 0 - - N 20 58 0,0
13.08.2018 15:00:00 21,2 11,8 0 0 - - N 20 47 0,0
13.08.2018 14:00:00 20,2 12,7 0 0 - - N 20 57 -
13.08.2018 13:00:00 20,0 11,8 0 0 - - N 20 57 0,0
13.08.2018 12:00:00 - - - - - - - - - -
13.08.2018 11:00:00 - - - - - - - - - -
13.08.2018 10:00:00 - - - - - - - - - -
13.08.2018 09:00:00 - - - - - - - - - -
13.08.2018 08:00:00 - - - - - - - - - -
13.08.2018 07:00:00 - - - - - - - - - -
13.08.2018 06:00:00 - - - - - - - - - -
13.08.2018 05:00:00 - - - - - - - - - -
13.08.2018 04:00:00 - - - - - - - - - -
13.08.2018 03:00:00 - - - - - - - - - -
13.08.2018 02:00:00 10,5 8,3 0 0 - - N 20 0 -
13.08.2018 01:00:00 10,1 9,3 2 1 - - SSE 20 0 0,0
13.08.2018 00:00:00 10,4 9,5 1 1 - - S 20 0 0,0
12.08.2018 23:00:00 10,9 10,0 0 0 - - N 20 0 1,6
12.08.2018 22:00:00 11,5 9,9 - - - - N 9 0 2,0
12.08.2018 21:00:00 11,1 8,5 - - - - N 0,4 0 20,0
12.08.2018 20:00:00 16,0 12,7 0 0 - - N 20 0 -
12.08.2018 19:00:00 17,1 14,0 0 0 - - N 19 0 2,2
12.08.2018 18:00:00 17,4 12,7 0 0 - - N 18 0 0,8
12.08.2018 17:00:00 18,3 13,8 0 0 - - N 16 0 1,2
12.08.2018 16:00:00 22,2 14,8 0 0 - - N 20 53 0,4
12.08.2018 15:00:00 18,8 11,6 0 0 - - N 14 15 0,0
12.08.2018 14:00:00 22,8 13,3 0 0 - - N 20 48 -
12.08.2018 13:00:00 21,6 13,3 5 3 10 6 NNW 20 39 0,0
12.08.2018 12:00:00 21,3 13,9 4 2 - - NE 20 46 0,0
12.08.2018 11:00:00 20,5 14,6 4 2 11 6 NE 20 59 0,0
12.08.2018 10:00:00 18,8 14,5 3 1 8 4 NNE 20 60 0,0
12.08.2018 09:00:00 15,8 13,6 - - - - W 20 37 0,0
12.08.2018 08:00:00 12,4 11,9 0 0 - - NE 13 0 -
12.08.2018 07:00:00 11,7 11,1 0 0 - - N 14 0 0,0
12.08.2018 06:00:00 11,7 10,9 0 0 - - N 14 0 0,0
12.08.2018 05:00:00 12,3 11,7 1 1 - - S 8 0 0,0
12.08.2018 04:00:00 12,8 11,7 0 0 - - N 12 0 0,0
12.08.2018 03:00:00 12,9 12,1 0 0 - - N 14 0 0,0
12.08.2018 02:00:00 13,1 11,8 0 0 - - N 16 0 -
12.08.2018 01:00:00 13,9 12,4 0 0 - - N 18 0 0,0
12.08.2018 00:00:00 14,7 12,7 0 0 - - N 20 0 0,0
11.08.2018 23:00:00 15,0 12,6 0 0 - - ENE 20 0 0,0
11.08.2018 22:00:00 15,0 12,9 0 0 - - N 20 0 0,0
11.08.2018 21:00:00 16,5 13,8 0 0 - - N 20 0 0,0
11.08.2018 20:00:00 18,0 14,7 0 0 - - N 20 2 -
11.08.2018 19:00:00 17,0 14,3 0 0 - - N 17 0 1,8
11.08.2018 18:00:00 19,5 13,9 0 0 - - N 20 33 0,0
11.08.2018 17:00:00 21,6 13,8 0 0 - - N 20 60 0,0
11.08.2018 16:00:00 22,7 12,9 0 0 0 0 N 20 58 0,0
11.08.2018 15:00:00 22,5 11,2 0 0 - - N 20 45 0,0
11.08.2018 14:00:00 20,4 13,6 0 0 - - N 20 37 -
11.08.2018 13:00:00 19,7 13,9 0 0 - - N 20 54 0,0
11.08.2018 12:00:00 18,9 13,3 8 4 16 9 NNW 20 60 0,0
11.08.2018 11:00:00 17,3 13,3 6 3 10 5 NNW 20 60 0,0
11.08.2018 10:00:00 15,3 12,2 5 3 9 5 NNW 19 60 0,0
11.08.2018 09:00:00 13,6 11,7 1 1 - - SSE 20 42 0,0
11.08.2018 08:00:00 10,4 9,9 0 0 - - N 16 0 -
11.08.2018 07:00:00 11,3 10,4 0 0 - - N 14 0 0,0
11.08.2018 06:00:00 11,6 10,8 0 0 - - N 16 0 0,0
11.08.2018 05:00:00 11,5 10,9 0 0 - - N 12 0 0,0
11.08.2018 04:00:00 11,7 10,6 0 0 - - N 19 0 0,0
11.08.2018 03:00:00 11,8 10,5 0 0 - - N 20 0 0,0
11.08.2018 02:00:00 11,2 10,1 0 0 - - N 20 0 -
11.08.2018 01:00:00 11,6 10,0 0 0 - - N 20 0 0,0

tt = temperature
td = dewpoint
ff = wind speed
fx = gusts
dd = wind direction
vv = visibility
sd = sunshine duration
rr = precipitation

Next stations